createdAt,value
2023-05-06T00:01:53.161Z,101646.14
2023-05-06T00:04:22.206Z,101648.04
2023-05-06T00:06:51.646Z,101647.84
2023-05-06T00:09:21.352Z,101644.70
2023-05-06T00:11:50.654Z,101643.45
2023-05-06T00:14:20.061Z,101641.84
2023-05-06T00:16:48.701Z,101646.65
2023-05-06T00:19:17.275Z,101644.89
2023-05-06T00:21:45.800Z,101648.52
2023-05-06T00:24:14.858Z,101647.77
2023-05-06T00:26:44.070Z,101648.79
2023-05-06T00:29:12.570Z,101642.67
2023-05-06T00:31:41.796Z,101642.23
2023-05-06T00:34:10.331Z,101638.06
2023-05-06T00:36:38.665Z,101638.77
2023-05-06T00:39:07.205Z,101643.49
2023-05-06T00:41:36.232Z,101640.39
2023-05-06T00:44:04.701Z,101643.34
2023-05-06T00:46:33.849Z,101644.16
2023-05-06T00:49:02.869Z,101642.92
2023-05-06T00:51:32.555Z,101639.95
2023-05-06T00:54:02.731Z,101638.90
2023-05-06T00:56:31.814Z,101638.71
2023-05-06T00:59:01.875Z,101635.08
2023-05-06T01:01:31.743Z,101637.11
2023-05-06T01:04:02.140Z,101644.52
2023-05-06T01:06:55.208Z,101647.95
2023-05-06T01:09:36.548Z,101646.17
2023-05-06T01:12:12.591Z,101649.44
2023-05-06T01:15:19.288Z,101649.77
2023-05-06T01:17:52.370Z,101650.95
2023-05-06T01:20:22.245Z,101652.67
2023-05-06T01:22:51.122Z,101651.80
2023-05-06T01:25:21.383Z,101651.99
2023-05-06T01:27:52.371Z,101653.91
2023-05-06T01:30:27.361Z,101659.49
2023-05-06T01:33:09.194Z,101658.45
2023-05-06T01:36:09.428Z,101657.90
2023-05-06T01:39:16.790Z,101656.46
2023-05-06T01:41:49.206Z,101653.30
2023-05-06T01:44:20.221Z,101656.02
2023-05-06T01:46:49.960Z,101658.73
2023-05-06T01:49:22.403Z,101659.77
2023-05-06T01:51:53.230Z,101664.36
2023-05-06T01:54:22.148Z,101667.45
2023-05-06T01:56:50.570Z,101668.23
2023-05-06T01:59:19.046Z,101669.75
2023-05-06T02:01:47.486Z,101671.22
2023-05-06T02:04:15.956Z,101671.86
2023-05-06T02:06:44.466Z,101675.41
2023-05-06T02:09:14.208Z,101676.44
2023-05-06T02:11:46.570Z,101679.91
2023-05-06T02:14:15.117Z,101679.17
2023-05-06T02:16:43.985Z,101677.39
2023-05-06T02:19:12.745Z,101677.33
2023-05-06T02:21:41.150Z,101676.08
2023-05-06T02:24:10.052Z,101673.98
2023-05-06T02:26:38.456Z,101676.41
2023-05-06T02:29:06.957Z,101675.91
2023-05-06T02:31:35.610Z,101676.59
2023-05-06T02:34:05.657Z,101676.05
2023-05-06T02:36:34.405Z,101682.81
2023-05-06T02:39:02.873Z,101685.57
2023-05-06T02:41:31.350Z,101687.13
2023-05-06T02:43:59.706Z,101690.41
2023-05-06T02:46:28.251Z,101692.77
2023-05-06T02:48:56.661Z,101688.24
2023-05-06T02:51:25.324Z,101691.85
2023-05-06T02:53:53.819Z,101695.30
2023-05-06T02:56:22.670Z,101696.00
2023-05-06T02:58:51.191Z,101694.42
2023-05-06T03:01:19.816Z,101694.77
2023-05-06T03:03:48.468Z,101694.74
2023-05-06T03:06:17.109Z,101697.65
2023-05-06T03:08:46.049Z,101700.77
2023-05-06T03:11:16.060Z,101699.53
2023-05-06T03:13:51.813Z,101704.06
2023-05-06T03:16:20.918Z,101706.52
2023-05-06T03:18:51.088Z,101706.91
2023-05-06T03:21:20.324Z,101706.42
2023-05-06T03:23:49.627Z,101707.33
2023-05-06T03:26:18.836Z,101712.09
2023-05-06T03:28:47.928Z,101713.70
2023-05-06T03:31:18.441Z,101715.02
2023-05-06T03:33:46.976Z,101720.44
2023-05-06T03:36:15.751Z,101723.25
2023-05-06T03:38:45.761Z,101722.60
2023-05-06T03:41:14.575Z,101727.30
2023-05-06T03:43:43.166Z,101725.63
2023-05-06T03:46:12.216Z,101730.41
2023-05-06T03:48:40.946Z,101731.55
2023-05-06T03:51:12.200Z,101735.33
2023-05-06T03:53:42.708Z,101736.77
2023-05-06T03:56:11.297Z,101739.94
2023-05-06T03:58:39.999Z,101737.25
2023-05-06T04:01:09.055Z,101743.02
2023-05-06T04:03:37.565Z,101745.31
2023-05-06T04:06:07.279Z,101746.04
2023-05-06T04:08:38.349Z,101750.23
2023-05-06T04:11:08.656Z,101747.13
2023-05-06T04:13:38.086Z,101751.02
2023-05-06T04:16:11.174Z,101754.06
2023-05-06T04:18:42.197Z,101758.14
2023-05-06T04:21:12.895Z,101756.85
2023-05-06T04:23:45.890Z,101762.49
2023-05-06T04:26:16.701Z,101766.70
2023-05-06T04:28:47.335Z,101770.71
2023-05-06T04:31:15.956Z,101772.67
2023-05-06T04:33:46.865Z,101775.52
2023-05-06T04:36:17.524Z,101776.90
2023-05-06T04:39:09.027Z,101777.09
2023-05-06T04:41:38.385Z,101775.39
2023-05-06T04:44:07.347Z,101775.40
2023-05-06T04:46:36.178Z,101775.43
2023-05-06T04:49:05.169Z,101773.94
2023-05-06T04:51:33.667Z,101775.77
2023-05-06T04:54:03.241Z,101777.81
2023-05-06T04:56:32.007Z,101779.48
2023-05-06T04:59:00.632Z,101781.67
2023-05-06T05:01:29.888Z,101781.05
2023-05-06T05:03:58.307Z,101775.79
2023-05-06T05:06:26.672Z,101778.52
2023-05-06T05:08:59.679Z,101778.44
2023-05-06T05:11:29.381Z,101780.08
2023-05-06T05:14:01.603Z,101776.50
2023-05-06T05:16:32.054Z,101779.02
2023-05-06T05:19:03.033Z,101785.52
2023-05-06T05:21:33.208Z,101783.52
2023-05-06T05:24:01.911Z,101780.44
2023-05-06T05:26:31.034Z,101782.80
2023-05-06T05:28:59.981Z,101783.60
2023-05-06T05:31:31.609Z,101779.17
2023-05-06T05:34:00.991Z,101779.44
2023-05-06T05:36:29.718Z,101774.63
2023-05-06T05:38:59.399Z,101780.45
2023-05-06T05:41:28.404Z,101788.17
2023-05-06T05:43:56.682Z,101788.92
2023-05-06T05:46:25.575Z,101787.74
2023-05-06T05:48:53.917Z,101790.05
2023-05-06T05:51:23.113Z,101789.05
2023-05-06T05:53:52.285Z,101790.48
2023-05-06T05:56:21.178Z,101790.84
2023-05-06T05:58:50.127Z,101788.60
2023-05-06T06:01:18.870Z,101792.13
2023-05-06T06:03:48.089Z,101789.02
2023-05-06T06:06:16.563Z,101792.17
2023-05-06T06:08:45.286Z,101795.15
2023-05-06T06:11:14.058Z,101794.14
2023-05-06T06:13:42.818Z,101792.23
2023-05-06T06:16:11.544Z,101793.63
2023-05-06T06:18:39.912Z,101794.32
2023-05-06T06:21:08.503Z,101791.52
2023-05-06T06:23:37.063Z,101789.91
2023-05-06T06:26:05.621Z,101788.66
2023-05-06T06:28:34.598Z,101787.94
2023-05-06T06:31:02.974Z,101787.56
2023-05-06T06:33:31.405Z,101787.55
2023-05-06T06:35:59.887Z,101786.83
2023-05-06T06:38:28.451Z,101786.79
2023-05-06T06:40:56.829Z,101784.11
2023-05-06T06:43:25.257Z,101783.71
2023-05-06T06:46:06.748Z,101788.02
2023-05-06T06:48:37.140Z,101787.09
2023-05-06T06:51:05.802Z,101788.46
2023-05-06T06:53:34.266Z,101789.29
2023-05-06T06:56:02.819Z,101791.15
2023-05-06T06:58:33.386Z,101790.73
2023-05-06T07:01:03.425Z,101786.46
2023-05-06T07:03:32.942Z,101785.20
2023-05-06T07:06:01.473Z,101786.55
2023-05-06T07:08:31.455Z,101786.30
2023-05-06T07:10:59.814Z,101783.78
2023-05-06T07:13:28.092Z,101781.61
2023-05-06T07:15:56.717Z,101781.14
2023-05-06T07:18:25.320Z,101777.02
2023-05-06T07:20:53.573Z,101773.63
2023-05-06T07:23:22.207Z,101775.35
2023-05-06T07:25:50.528Z,101781.08
2023-05-06T07:28:18.619Z,101779.98
2023-05-06T07:30:47.189Z,101781.40
2023-05-06T07:33:15.489Z,101783.98
2023-05-06T07:35:43.902Z,101785.73
2023-05-06T07:38:12.154Z,101787.14
2023-05-06T07:40:41.256Z,101787.77
2023-05-06T07:43:10.036Z,101786.09
2023-05-06T07:45:38.350Z,101786.23
2023-05-06T07:48:08.831Z,101788.65
2023-05-06T07:50:39.403Z,101789.27
2023-05-06T07:53:07.722Z,101793.71
2023-05-06T07:55:39.293Z,101790.92
2023-05-06T07:58:07.887Z,101786.52
2023-05-06T08:00:36.210Z,101784.80
2023-05-06T08:03:04.764Z,101781.77
2023-05-06T08:05:33.417Z,101781.27
2023-05-06T08:08:01.913Z,101780.05
2023-05-06T08:10:30.246Z,101780.94
2023-05-06T08:12:58.629Z,101781.11
2023-05-06T08:15:26.915Z,101780.77
2023-05-06T08:17:56.631Z,101783.39
2023-05-06T08:20:26.064Z,101776.31
2023-05-06T08:22:54.503Z,101779.84
2023-05-06T08:25:22.929Z,101775.73
2023-05-06T08:27:51.332Z,101775.84
2023-05-06T08:30:19.642Z,101776.49
2023-05-06T08:32:48.092Z,101780.17
2023-05-06T08:35:17.623Z,101784.92
2023-05-06T08:37:46.214Z,101786.58
2023-05-06T08:40:22.423Z,101788.21
2023-05-06T08:42:51.115Z,101781.19
2023-05-06T08:45:19.939Z,101777.98
2023-05-06T08:47:48.328Z,101778.63
2023-05-06T08:50:16.801Z,101780.45
2023-05-06T08:52:45.483Z,101784.53
2023-05-06T08:55:14.665Z,101783.52
2023-05-06T08:57:45.498Z,101787.41
2023-05-06T09:00:15.279Z,101784.55
2023-05-06T09:02:43.918Z,101783.84
2023-05-06T09:05:12.830Z,101778.04
2023-05-06T09:07:41.586Z,101773.25
2023-05-06T09:10:14.881Z,101769.58
2023-05-06T09:12:43.295Z,101765.60
2023-05-06T09:15:12.295Z,101767.75
2023-05-06T09:17:40.979Z,101766.88
2023-05-06T09:20:12.564Z,101767.06
2023-05-06T09:22:41.822Z,101763.58
2023-05-06T09:25:12.115Z,101760.63
2023-05-06T09:27:41.025Z,101767.32
2023-05-06T09:30:14.511Z,101759.50
2023-05-06T09:32:43.984Z,101758.91
2023-05-06T09:35:12.538Z,101758.46
2023-05-06T09:37:41.982Z,101757.31
2023-05-06T09:40:11.099Z,101756.09
2023-05-06T09:42:39.545Z,101755.81
2023-05-06T09:45:09.065Z,101756.04
2023-05-06T09:47:38.256Z,101756.52
2023-05-06T09:50:09.488Z,101760.61
2023-05-06T09:52:37.880Z,101765.27
2023-05-06T09:55:08.065Z,101765.38
2023-05-06T09:57:37.791Z,101765.23
2023-05-06T10:00:09.533Z,101755.45
2023-05-06T10:02:41.989Z,101754.48
2023-05-06T10:05:13.154Z,101753.64
2023-05-06T10:07:42.531Z,101754.10
2023-05-06T10:10:12.336Z,101755.63
2023-05-06T10:12:40.946Z,101755.48
2023-05-06T10:15:10.262Z,101743.26
2023-05-06T10:17:41.873Z,101745.42
2023-05-06T10:20:14.742Z,101748.45
2023-05-06T10:23:11.143Z,101742.75
2023-05-06T10:25:42.592Z,101738.63
2023-05-06T10:28:19.242Z,101737.07
2023-05-06T10:31:00.194Z,101729.80
2023-05-06T10:33:31.583Z,101723.48
2023-05-06T10:36:21.770Z,101719.96
2023-05-06T10:39:00.272Z,101721.96
2023-05-06T10:41:31.115Z,101716.12
2023-05-06T10:44:00.286Z,101712.02
2023-05-06T10:46:30.408Z,101723.23
2023-05-06T10:49:04.917Z,101717.21
2023-05-06T10:51:37.805Z,101715.27
2023-05-06T10:54:11.205Z,101715.06
2023-05-06T10:56:59.770Z,101713.77
2023-05-06T10:59:31.637Z,101718.92
2023-05-06T11:02:03.132Z,101713.30
2023-05-06T11:04:32.468Z,101708.82
2023-05-06T11:07:15.809Z,101707.42
2023-05-06T11:10:08.435Z,101710.02
2023-05-06T11:12:51.120Z,101707.56
2023-05-06T11:15:40.704Z,101710.61
2023-05-06T11:18:37.120Z,101707.99
2023-05-06T11:21:29.233Z,101705.73
2023-05-06T11:23:57.577Z,101704.06
2023-05-06T11:26:26.049Z,101701.80
2023-05-06T11:28:54.424Z,101697.61
2023-05-06T11:31:23.184Z,101699.16
2023-05-06T11:33:53.394Z,101698.09
2023-05-06T11:36:22.103Z,101702.17
2023-05-06T11:38:53.028Z,101705.52
2023-05-06T11:41:23.162Z,101703.11
2023-05-06T11:43:53.681Z,101696.71
2023-05-06T11:46:25.790Z,101688.73
2023-05-06T11:48:54.239Z,101685.42
2023-05-06T11:51:23.584Z,101683.69
2023-05-06T11:54:12.438Z,101685.66
2023-05-06T11:56:51.508Z,101683.36
2023-05-06T11:59:32.011Z,101678.92
2023-05-06T12:02:04.115Z,101678.83
2023-05-06T12:04:43.106Z,101678.16
2023-05-06T12:07:14.330Z,101677.08
2023-05-06T12:09:45.926Z,101677.60
2023-05-06T12:12:23.094Z,101677.02
2023-05-06T12:14:53.678Z,101677.39
2023-05-06T12:17:22.896Z,101670.30
2023-05-06T12:19:51.936Z,101670.13
2023-05-06T12:22:22.512Z,101669.22
2023-05-06T12:24:50.944Z,101666.17
2023-05-06T12:27:33.331Z,101668.91
2023-05-06T12:30:04.839Z,101669.73
2023-05-06T12:32:33.355Z,101672.87
2023-05-06T12:35:07.621Z,101673.23
2023-05-06T12:37:39.842Z,101677.31
2023-05-06T12:40:18.019Z,101676.15
2023-05-06T12:42:54.949Z,101671.70
2023-05-06T12:45:24.205Z,101673.85
2023-05-06T12:48:02.442Z,101670.82
2023-05-06T12:50:39.848Z,101670.63
2023-05-06T12:53:10.208Z,101669.08
2023-05-06T12:55:39.904Z,101664.70
2023-05-06T12:58:20.840Z,101665.90
2023-05-06T13:00:49.422Z,101660.79
2023-05-06T13:03:19.541Z,101662.23
2023-05-06T13:05:50.495Z,101655.37
2023-05-06T13:08:19.565Z,101659.19
2023-05-06T13:10:47.917Z,101655.17
2023-05-06T13:13:16.862Z,101652.96
2023-05-06T13:15:45.592Z,101652.05
2023-05-06T13:18:13.998Z,101647.38
2023-05-06T13:20:42.418Z,101645.75
2023-05-06T13:23:10.785Z,101646.48
2023-05-06T13:25:51.764Z,101641.02
2023-05-06T13:28:28.247Z,101640.52
2023-05-06T13:30:56.636Z,101640.86
2023-05-06T13:33:25.142Z,101645.25
2023-05-06T13:35:53.515Z,101641.66
2023-05-06T13:38:22.134Z,101642.56
2023-05-06T13:40:54.740Z,101640.95
2023-05-06T13:43:26.351Z,101639.68
2023-05-06T13:45:55.022Z,101640.52
2023-05-06T13:48:23.418Z,101643.67
2023-05-06T13:50:51.908Z,101642.19
2023-05-06T13:53:20.853Z,101642.14
2023-05-06T13:55:49.348Z,101638.38
2023-05-06T13:58:17.915Z,101635.55
2023-05-06T14:00:46.640Z,101626.52
2023-05-06T14:03:15.288Z,101628.45
2023-05-06T14:05:45.867Z,101625.84
2023-05-06T14:08:16.185Z,101630.48
2023-05-06T14:10:47.010Z,101626.43
2023-05-06T14:13:15.958Z,101625.81
2023-05-06T14:15:44.461Z,101624.33
2023-05-06T14:18:13.044Z,101619.79
2023-05-06T14:20:41.795Z,101623.58
2023-05-06T14:23:10.191Z,101622.83
2023-05-06T14:25:38.909Z,101625.20
2023-05-06T14:28:07.631Z,101623.52
2023-05-06T14:30:35.909Z,101622.96
2023-05-06T14:33:04.328Z,101627.73
2023-05-06T14:35:33.010Z,101626.52
2023-05-06T14:38:01.352Z,101626.16
2023-05-06T14:40:29.723Z,101624.87
2023-05-06T14:42:58.068Z,101623.75
2023-05-06T14:45:26.518Z,101623.62
2023-05-06T14:47:54.967Z,101617.44
2023-05-06T14:50:23.293Z,101611.65
2023-05-06T14:52:51.573Z,101608.16
2023-05-06T14:55:20.711Z,101603.60
2023-05-06T14:57:49.104Z,101605.86
2023-05-06T15:00:17.861Z,101600.97
2023-05-06T15:02:46.393Z,101602.32
2023-05-06T15:05:15.200Z,101601.77
2023-05-06T15:07:43.785Z,101601.56
2023-05-06T15:10:12.128Z,101605.48
2023-05-06T15:12:40.523Z,101606.83
2023-05-06T15:15:09.814Z,101605.14
2023-05-06T15:17:41.930Z,101603.14
2023-05-06T15:20:12.567Z,101601.15
2023-05-06T15:22:40.818Z,101602.09
2023-05-06T15:25:16.614Z,101603.16
2023-05-06T15:27:48.216Z,101601.71
2023-05-06T15:30:17.003Z,101600.44
2023-05-06T15:32:45.236Z,101599.73
2023-05-06T15:35:13.828Z,101600.19
2023-05-06T15:37:42.138Z,101604.27
2023-05-06T15:40:12.300Z,101605.06
2023-05-06T15:42:40.842Z,101602.70
2023-05-06T15:45:09.728Z,101603.47
2023-05-06T15:47:41.600Z,101598.79
2023-05-06T15:50:20.093Z,101595.27
2023-05-06T15:52:59.108Z,101595.20
2023-05-06T15:55:27.362Z,101593.05
2023-05-06T15:57:57.355Z,101597.94
2023-05-06T16:00:28.107Z,101594.35
2023-05-06T16:02:57.466Z,101597.62
2023-05-06T16:05:25.931Z,101597.34
2023-05-06T16:07:56.391Z,101597.27
2023-05-06T16:10:24.876Z,101595.02
2023-05-06T16:12:54.116Z,101598.65
2023-05-06T16:15:22.658Z,101595.60
2023-05-06T16:17:51.130Z,101597.89
2023-05-06T16:20:19.438Z,101599.38
2023-05-06T16:22:51.551Z,101600.31
2023-05-06T16:25:20.324Z,101597.95
2023-05-06T16:27:49.153Z,101597.28
2023-05-06T16:30:17.972Z,101594.85
2023-05-06T16:32:49.123Z,101595.17
2023-05-06T16:35:18.566Z,101593.08
2023-05-06T16:37:47.354Z,101594.05
2023-05-06T16:40:20.760Z,101596.02
2023-05-06T16:42:50.512Z,101593.73
2023-05-06T16:45:19.415Z,101590.13
2023-05-06T16:47:48.627Z,101588.15
2023-05-06T16:50:17.141Z,101592.84
2023-05-06T16:52:45.553Z,101595.30
2023-05-06T16:55:14.250Z,101595.41
2023-05-06T16:57:42.515Z,101597.63
2023-05-06T17:00:12.158Z,101599.42
2023-05-06T17:02:41.355Z,101603.72
2023-05-06T17:05:09.869Z,101606.90
2023-05-06T17:07:38.398Z,101606.37
2023-05-06T17:10:07.552Z,101611.34
2023-05-06T17:12:36.536Z,101621.73
2023-05-06T17:15:06.017Z,101621.40
2023-05-06T17:17:35.002Z,101622.12
2023-05-06T17:20:07.218Z,101620.55
2023-05-06T17:22:37.244Z,101624.80
2023-05-06T17:25:06.390Z,101624.27
2023-05-06T17:27:34.805Z,101627.45
2023-05-06T17:30:03.303Z,101631.89
2023-05-06T17:32:31.795Z,101630.84
2023-05-06T17:35:00.414Z,101631.90
2023-05-06T17:37:28.712Z,101633.98
2023-05-06T17:39:57.027Z,101635.70
2023-05-06T17:42:27.633Z,101641.30
2023-05-06T17:44:55.943Z,101646.16
2023-05-06T17:47:24.443Z,101648.05
2023-05-06T17:49:54.091Z,101650.46
2023-05-06T17:52:25.902Z,101656.91
2023-05-06T17:55:10.839Z,101658.45
2023-05-06T17:57:43.678Z,101663.92
2023-05-06T18:00:12.502Z,101665.91
2023-05-06T18:02:44.728Z,101670.33
2023-05-06T18:05:14.021Z,101675.23
2023-05-06T18:07:42.442Z,101675.55
2023-05-06T18:10:11.129Z,101676.52
2023-05-06T18:12:40.204Z,101677.10
2023-05-06T18:15:09.502Z,101679.21
2023-05-06T18:17:41.555Z,101678.38
2023-05-06T18:20:13.088Z,101682.48
2023-05-06T18:22:43.086Z,101684.48
2023-05-06T18:25:11.607Z,101679.98
2023-05-06T18:27:40.468Z,101684.66
2023-05-06T18:30:08.976Z,101683.89
2023-05-06T18:32:37.674Z,101684.84
2023-05-06T18:35:06.649Z,101687.17
2023-05-06T18:37:35.094Z,101688.80
2023-05-06T18:40:04.762Z,101690.23
2023-05-06T18:42:34.001Z,101689.59
2023-05-06T18:45:07.177Z,101690.35
2023-05-06T18:47:37.788Z,101693.04
2023-05-06T18:50:08.255Z,101697.66
2023-05-06T18:52:37.733Z,101694.77
2023-05-06T18:55:07.564Z,101696.23
2023-05-06T18:57:36.288Z,101695.23
2023-05-06T19:00:08.711Z,101695.12
2023-05-06T19:02:38.112Z,101691.48
2023-05-06T19:05:07.833Z,101688.72
2023-05-06T19:07:36.698Z,101688.23
2023-05-06T19:10:05.550Z,101683.40
2023-05-06T19:12:37.009Z,101682.95
2023-05-06T19:15:06.302Z,101676.75
2023-05-06T19:17:34.901Z,101676.33
2023-05-06T19:20:03.673Z,101684.52
2023-05-06T19:22:33.127Z,101688.48
2023-05-06T19:25:01.604Z,101696.08
2023-05-06T19:27:30.098Z,101697.20
2023-05-06T19:29:58.561Z,101697.09
2023-05-06T19:32:26.951Z,101700.82
2023-05-06T19:34:55.318Z,101697.90
2023-05-06T19:37:23.871Z,101696.00
2023-05-06T19:39:52.435Z,101697.58
2023-05-06T19:42:20.810Z,101689.52
2023-05-06T19:44:49.888Z,101690.40
2023-05-06T19:47:18.216Z,101686.90
2023-05-06T19:49:46.905Z,101682.17
2023-05-06T19:52:15.312Z,101683.94
2023-05-06T19:54:43.761Z,101685.35
2023-05-06T19:57:12.191Z,101685.04
2023-05-06T19:59:40.666Z,101688.73
2023-05-06T20:02:13.671Z,101688.40
2023-05-06T20:04:43.317Z,101689.46
2023-05-06T20:07:12.729Z,101689.64
2023-05-06T20:09:41.092Z,101689.65
2023-05-06T20:12:21.287Z,101697.73
2023-05-06T20:14:57.012Z,101692.86
2023-05-06T20:17:26.308Z,101690.80
2023-05-06T20:19:57.483Z,101691.88
2023-05-06T20:22:26.554Z,101692.42
2023-05-06T20:25:08.247Z,101693.85
2023-05-06T20:27:37.336Z,101693.52
2023-05-06T20:30:08.306Z,101691.46
2023-05-06T20:32:38.056Z,101692.91
2023-05-06T20:35:07.523Z,101691.19
2023-05-06T20:37:36.597Z,101698.20
2023-05-06T20:40:08.069Z,101694.58
2023-05-06T20:42:36.998Z,101691.45
2023-05-06T20:45:09.366Z,101691.13
2023-05-06T20:47:38.321Z,101694.45
2023-05-06T20:50:07.245Z,101696.73
2023-05-06T20:52:36.086Z,101692.38
2023-05-06T20:55:06.008Z,101689.60
2023-05-06T20:57:34.504Z,101690.66
2023-05-06T21:00:04.201Z,101691.20
2023-05-06T21:02:35.863Z,101687.72
2023-05-06T21:05:09.057Z,101685.11
2023-05-06T21:07:40.247Z,101682.69
2023-05-06T21:10:11.324Z,101682.67
2023-05-06T21:12:39.819Z,101680.23
2023-05-06T21:15:09.329Z,101674.31
2023-05-06T21:17:45.413Z,101667.13
2023-05-06T21:20:16.898Z,101662.06
2023-05-06T21:22:46.077Z,101658.56
2023-05-06T21:25:14.676Z,101659.78
2023-05-06T21:27:43.225Z,101671.85
2023-05-06T21:30:11.881Z,101676.90
2023-05-06T21:32:40.348Z,101688.44
2023-05-06T21:35:09.141Z,101690.88
2023-05-06T21:37:37.769Z,101688.44
2023-05-06T21:40:06.674Z,101687.91
2023-05-06T21:42:34.938Z,101689.65
2023-05-06T21:45:03.807Z,101695.77
2023-05-06T21:47:32.280Z,101697.33
2023-05-06T21:50:00.636Z,101704.51
2023-05-06T21:52:29.249Z,101703.81
2023-05-06T21:54:57.744Z,101708.35
2023-05-06T21:57:26.753Z,101707.64
2023-05-06T21:59:55.184Z,101704.12
2023-05-06T22:02:23.493Z,101703.27
2023-05-06T22:04:52.186Z,101703.42
2023-05-06T22:07:21.239Z,101709.04
2023-05-06T22:09:49.586Z,101709.56
2023-05-06T22:12:17.918Z,101712.55
2023-05-06T22:14:46.296Z,101710.98
2023-05-06T22:17:15.919Z,101713.25
2023-05-06T22:19:44.465Z,101710.80
2023-05-06T22:22:16.226Z,101707.84
2023-05-06T22:24:45.361Z,101702.42
2023-05-06T22:27:13.869Z,101704.17
2023-05-06T22:33:20.712Z,101707.84
2023-05-06T22:35:49.104Z,101707.85
2023-05-06T22:38:17.400Z,101706.11
2023-05-06T22:40:45.826Z,101704.88
2023-05-06T22:43:14.168Z,101701.89
2023-05-06T22:45:42.458Z,101702.59
2023-05-06T22:48:11.367Z,101701.54
2023-05-06T22:50:39.701Z,101702.23
2023-05-06T22:53:14.932Z,101702.23
2023-05-06T22:55:45.474Z,101698.05
2023-05-06T22:58:13.947Z,101697.01
2023-05-06T23:00:43.582Z,101695.09
2023-05-06T23:03:12.004Z,101694.55
2023-05-06T23:05:41.222Z,101693.15
2023-05-06T23:08:10.587Z,101696.82
2023-05-06T23:10:39.185Z,101699.61
2023-05-06T23:13:07.752Z,101702.23
2023-05-06T23:15:36.864Z,101705.88
2023-05-06T23:18:07.711Z,101707.63
2023-05-06T23:20:36.083Z,101707.45
2023-05-06T23:23:04.464Z,101710.23
2023-05-06T23:25:32.836Z,101707.09
2023-05-06T23:28:01.250Z,101703.77
2023-05-06T23:30:29.812Z,101700.08
2023-05-06T23:32:58.182Z,101703.04
2023-05-06T23:35:26.987Z,101702.14
2023-05-06T23:37:55.245Z,101701.25
2023-05-06T23:40:23.649Z,101701.77
2023-05-06T23:42:51.927Z,101697.04
2023-05-06T23:45:20.589Z,101696.15
2023-05-06T23:47:48.958Z,101691.79
2023-05-06T23:50:17.521Z,101688.98
2023-05-06T23:52:46.601Z,101687.40
2023-05-06T23:55:15.066Z,101688.77
2023-05-06T23:57:43.433Z,101690.52
